createdAt,value
2022-10-02T00:01:17.942Z,3.22
2022-10-02T00:03:47.233Z,3.63
2022-10-02T00:06:20.911Z,5.05
2022-10-02T00:08:51.086Z,7.25
2022-10-02T00:11:21.619Z,3.33
2022-10-02T00:13:52.269Z,5.07
2022-10-02T00:16:27.079Z,5.50
2022-10-02T00:18:57.471Z,2.80
2022-10-02T00:21:38.022Z,3.92
2022-10-02T00:24:07.633Z,3.80
2022-10-02T00:26:38.950Z,5.22
2022-10-02T00:29:21.283Z,5.75
2022-10-02T00:31:58.826Z,2.95
2022-10-02T00:34:41.180Z,4.95
2022-10-02T00:37:20.713Z,2.25
2022-10-02T00:40:00.204Z,4.43
2022-10-02T00:43:01.641Z,4.78
2022-10-02T00:46:05.850Z,6.00
2022-10-02T00:48:55.693Z,3.15
2022-10-02T00:51:45.584Z,5.18
2022-10-02T00:54:28.752Z,6.65
2022-10-02T00:57:09.707Z,6.75
2022-10-02T00:59:58.781Z,4.57
2022-10-02T01:02:56.132Z,5.47
2022-10-02T01:05:23.809Z,4.55
2022-10-02T01:07:54.864Z,6.90
2022-10-02T01:10:25.397Z,8.52
2022-10-02T01:12:53.254Z,3.65
2022-10-02T01:15:23.034Z,5.15
2022-10-02T01:17:52.937Z,4.55
2022-10-02T01:20:24.396Z,4.28
2022-10-02T01:23:00.041Z,3.97
2022-10-02T01:25:30.027Z,3.13
2022-10-02T01:27:58.103Z,5.22
2022-10-02T01:30:26.041Z,5.57
2022-10-02T01:32:57.060Z,5.72
2022-10-02T01:35:28.781Z,8.15
2022-10-02T01:37:56.900Z,4.10
2022-10-02T01:40:27.024Z,3.13
2022-10-02T01:42:58.552Z,4.57
2022-10-02T01:45:38.619Z,6.75
2022-10-02T01:48:14.821Z,8.50
2022-10-02T01:50:53.800Z,8.85
2022-10-02T01:53:28.176Z,6.20
2022-10-02T01:56:04.678Z,6.05
2022-10-02T01:58:43.591Z,3.85
2022-10-02T02:01:18.725Z,4.80
2022-10-02T02:03:54.226Z,11.80
2022-10-02T02:06:30.015Z,5.82
2022-10-02T02:09:05.102Z,6.72
2022-10-02T02:11:33.908Z,3.42
2022-10-02T02:14:07.945Z,6.45
2022-10-02T02:16:42.329Z,4.40
2022-10-02T02:19:17.618Z,4.38
2022-10-02T02:21:49.993Z,7.88
2022-10-02T02:24:23.623Z,8.88
2022-10-02T02:26:53.604Z,3.70
2022-10-02T02:29:24.639Z,5.65
2022-10-02T02:31:55.324Z,6.15
2022-10-02T02:34:26.483Z,5.82
2022-10-02T02:36:59.274Z,5.15
2022-10-02T02:39:33.608Z,4.78
2022-10-02T02:42:05.877Z,5.40
2022-10-02T02:44:39.244Z,5.35
2022-10-02T02:47:12.736Z,4.15
2022-10-02T02:49:50.680Z,3.97
2022-10-02T02:52:23.050Z,4.55
2022-10-02T02:54:55.993Z,5.60
2022-10-02T02:57:28.148Z,5.38
2022-10-02T03:00:03.834Z,5.50
2022-10-02T03:02:31.799Z,5.78
2022-10-02T03:04:59.586Z,7.45
2022-10-02T03:07:27.554Z,7.93
2022-10-02T03:10:07.123Z,7.32
2022-10-02T03:12:49.596Z,6.40
2022-10-02T03:15:28.513Z,6.75
2022-10-02T03:18:05.879Z,5.22
2022-10-02T03:20:41.588Z,4.75
2022-10-02T03:23:17.068Z,5.45
2022-10-02T03:25:52.357Z,6.03
2022-10-02T03:28:50.543Z,6.03
2022-10-02T03:31:16.706Z,4.07
2022-10-02T03:33:45.887Z,5.55
2022-10-02T03:36:16.306Z,2.50
2022-10-02T03:38:45.027Z,8.52
2022-10-02T03:41:12.662Z,6.15
2022-10-02T03:43:40.336Z,6.82
2022-10-02T03:46:07.984Z,9.63
2022-10-02T03:48:36.939Z,5.78
2022-10-02T03:51:04.789Z,5.20
2022-10-02T03:53:35.366Z,6.07
2022-10-02T03:56:07.761Z,8.88
2022-10-02T03:58:35.987Z,5.00
2022-10-02T04:01:06.718Z,5.18
2022-10-02T04:03:38.330Z,6.55
2022-10-02T04:06:12.455Z,3.13
2022-10-02T04:08:44.698Z,5.43
2022-10-02T04:11:17.056Z,4.07
2022-10-02T04:13:48.625Z,6.25
2022-10-02T04:16:21.421Z,5.45
2022-10-02T04:18:56.458Z,6.38
2022-10-02T04:21:34.925Z,7.25
2022-10-02T04:24:10.317Z,3.70
2022-10-02T04:26:43.067Z,6.65
2022-10-02T04:29:17.121Z,5.05
2022-10-02T04:31:46.105Z,9.82
2022-10-02T04:34:15.084Z,9.20
2022-10-02T04:36:59.571Z,7.50
2022-10-02T04:39:46.455Z,8.38
2022-10-02T04:42:25.656Z,5.25
2022-10-02T04:45:05.431Z,9.40
2022-10-02T04:48:03.287Z,5.80
2022-10-02T04:50:42.320Z,7.35
2022-10-02T04:53:18.862Z,8.20
2022-10-02T04:55:58.679Z,7.80
2022-10-02T04:58:46.498Z,8.40
2022-10-02T05:01:22.355Z,8.00
2022-10-02T05:04:05.352Z,7.90
2022-10-02T05:06:49.468Z,7.10
2022-10-02T05:09:28.444Z,6.70
2022-10-02T05:12:20.469Z,7.03
2022-10-02T05:15:04.797Z,5.35
2022-10-02T05:17:55.245Z,7.03
2022-10-02T05:20:41.245Z,9.13
2022-10-02T05:23:27.727Z,8.45
2022-10-02T05:26:14.358Z,8.68
2022-10-02T05:29:00.702Z,8.25
2022-10-02T05:31:39.813Z,9.60
2022-10-02T05:34:22.845Z,9.18
2022-10-02T05:37:06.687Z,10.45
2022-10-02T05:39:37.646Z,6.28
2022-10-02T05:42:10.070Z,5.80
2022-10-02T05:44:41.064Z,10.68
2022-10-02T05:47:14.437Z,7.43
2022-10-02T05:49:48.005Z,14.15
2022-10-02T05:52:20.736Z,7.75
2022-10-02T05:54:55.512Z,12.43
2022-10-02T05:57:29.318Z,10.38
2022-10-02T06:00:07.381Z,7.88
2022-10-02T06:02:41.411Z,8.48
2022-10-02T06:05:16.484Z,12.45
2022-10-02T06:07:47.904Z,7.47
2022-10-02T06:10:20.108Z,7.45
2022-10-02T06:12:53.289Z,10.90
2022-10-02T06:15:25.556Z,10.80
2022-10-02T06:17:57.576Z,10.38
2022-10-02T06:20:29.996Z,8.10
2022-10-02T06:23:05.233Z,9.60
2022-10-02T06:25:39.185Z,10.88
2022-10-02T06:28:12.561Z,9.57
2022-10-02T06:30:44.411Z,7.05
2022-10-02T06:33:18.622Z,4.68
2022-10-02T06:36:01.827Z,10.15
2022-10-02T06:38:45.083Z,7.43
2022-10-02T06:41:29.494Z,6.85
2022-10-02T06:44:21.809Z,7.38
2022-10-02T06:47:03.762Z,8.00
2022-10-02T06:49:42.581Z,7.53
2022-10-02T06:52:22.993Z,7.05
2022-10-02T06:55:06.077Z,7.80
2022-10-02T06:57:56.815Z,8.57
2022-10-02T07:00:24.430Z,5.47
2022-10-02T07:03:31.387Z,12.80
2022-10-02T07:06:33.281Z,8.38
2022-10-02T07:09:45.798Z,14.38
2022-10-02T07:12:31.125Z,9.35
2022-10-02T07:15:19.140Z,9.52
2022-10-02T07:17:57.256Z,9.75
2022-10-02T07:20:39.689Z,13.25
2022-10-02T07:23:40.101Z,6.10
2022-10-02T07:26:36.376Z,9.00
2022-10-02T07:29:21.503Z,6.82
2022-10-02T07:32:10.819Z,8.05
2022-10-02T07:34:45.413Z,8.27
2022-10-02T07:37:22.136Z,9.95
2022-10-02T07:40:10.201Z,13.00
2022-10-02T07:43:00.981Z,10.18
2022-10-02T07:45:33.507Z,6.03
2022-10-02T07:48:40.325Z,8.25
2022-10-02T07:51:40.023Z,5.63
2022-10-02T07:54:19.937Z,8.35
2022-10-02T07:56:49.581Z,6.55
2022-10-02T07:59:18.763Z,6.05
2022-10-02T08:01:50.603Z,3.20
2022-10-02T08:04:26.959Z,3.92
2022-10-02T08:06:59.127Z,5.78
2022-10-02T08:09:34.656Z,6.53
2022-10-02T08:12:09.147Z,6.63
2022-10-02T08:14:40.542Z,10.70
2022-10-02T08:17:20.844Z,9.85
2022-10-02T08:19:52.560Z,12.10
2022-10-02T08:22:26.089Z,12.03
2022-10-02T08:24:57.751Z,13.68
2022-10-02T08:27:30.449Z,8.00
2022-10-02T08:30:04.281Z,8.43
2022-10-02T08:32:34.989Z,10.48
2022-10-02T08:35:12.381Z,8.65
2022-10-02T08:37:49.482Z,8.30
2022-10-02T08:40:57.411Z,6.03
2022-10-02T08:43:48.506Z,9.52
2022-10-02T08:46:44.044Z,8.95
2022-10-02T08:49:48.301Z,6.35
2022-10-02T08:52:38.841Z,9.30
2022-10-02T08:55:31.269Z,9.23
2022-10-02T08:58:29.757Z,22.40
2022-10-02T09:01:11.868Z,8.60
2022-10-02T09:04:05.594Z,8.77
2022-10-02T09:07:08.807Z,9.65
2022-10-02T09:12:58.290Z,7.65
2022-10-02T09:15:47.858Z,6.72
2022-10-02T09:18:26.499Z,11.90
2022-10-02T09:21:16.115Z,7.72
2022-10-02T09:24:18.514Z,3.72
2022-10-02T09:27:16.099Z,5.38
2022-10-02T09:30:15.073Z,3.42
2022-10-02T09:33:11.632Z,2.42
2022-10-02T09:36:11.906Z,5.25
2022-10-02T09:39:18.592Z,3.85
2022-10-02T09:42:33.991Z,3.17
2022-10-02T09:45:21.081Z,4.57
2022-10-02T09:48:21.265Z,2.58
2022-10-02T09:51:05.809Z,4.75
2022-10-02T09:54:03.598Z,6.38
2022-10-02T09:57:06.934Z,6.35
2022-10-02T10:00:04.449Z,9.25
2022-10-02T10:02:54.973Z,6.18
2022-10-02T10:06:03.912Z,9.45
2022-10-02T10:08:52.341Z,7.18
2022-10-02T10:11:41.826Z,6.30
2022-10-02T10:14:48.109Z,5.47
2022-10-02T10:17:59.569Z,8.18
2022-10-02T10:21:03.307Z,4.75
2022-10-02T10:24:06.270Z,8.30
2022-10-02T10:27:08.238Z,5.05
2022-10-02T10:30:04.469Z,5.25
2022-10-02T10:33:09.972Z,7.38
2022-10-02T10:36:07.293Z,6.05
2022-10-02T10:38:50.759Z,6.28
2022-10-02T10:41:58.860Z,7.20
2022-10-02T10:45:05.407Z,10.65
2022-10-02T10:47:53.201Z,10.38
2022-10-02T10:50:45.285Z,10.02
2022-10-02T10:53:24.608Z,10.57
2022-10-02T10:56:37.078Z,11.55
2022-10-02T10:59:45.028Z,9.27
2022-10-02T11:02:54.581Z,10.30
2022-10-02T11:06:02.737Z,7.30
2022-10-02T11:09:05.599Z,9.20
2022-10-02T11:11:41.217Z,11.52
2022-10-02T11:14:21.955Z,4.60
2022-10-02T11:17:12.961Z,5.65
2022-10-02T11:19:55.812Z,6.10
2022-10-02T11:22:44.521Z,7.57
2022-10-02T11:25:39.583Z,6.90
2022-10-02T11:28:22.054Z,4.85
2022-10-02T11:30:59.751Z,7.13
2022-10-02T11:33:44.299Z,5.25
2022-10-02T11:36:41.625Z,6.50
2022-10-02T11:39:43.001Z,1.70
2022-10-02T11:42:53.041Z,2.10
2022-10-02T11:45:49.160Z,3.85
2022-10-02T11:48:44.544Z,8.65
2022-10-02T11:51:42.463Z,7.28
2022-10-02T11:54:30.189Z,7.68
2022-10-02T11:57:15.345Z,5.45
2022-10-02T12:00:04.567Z,4.47
2022-10-02T12:02:39.004Z,3.50
2022-10-02T12:05:21.762Z,2.90
2022-10-02T12:08:01.603Z,2.30
2022-10-02T12:10:44.119Z,2.88
2022-10-02T12:13:29.122Z,8.77
2022-10-02T12:16:05.901Z,2.35
2022-10-02T12:18:49.986Z,4.93
2022-10-02T12:21:48.505Z,2.85
2022-10-02T12:24:57.467Z,2.17
2022-10-02T12:27:42.691Z,1.75
2022-10-02T12:30:14.129Z,1.25
2022-10-02T12:33:08.150Z,2.85
2022-10-02T12:35:55.796Z,8.45
2022-10-02T12:38:35.078Z,3.88
2022-10-02T12:41:10.447Z,2.30
2022-10-02T12:44:09.735Z,2.53
2022-10-02T12:47:10.265Z,1.42
2022-10-02T12:49:47.311Z,1.20
2022-10-02T12:52:48.826Z,1.58
2022-10-02T12:55:48.681Z,2.97
2022-10-02T12:58:27.421Z,3.17
2022-10-02T13:01:31.441Z,1.75
2022-10-02T13:04:23.521Z,1.33
2022-10-02T13:07:24.971Z,4.97
2022-10-02T13:09:58.573Z,1.00
2022-10-02T13:12:42.311Z,1.50
2022-10-02T13:15:37.157Z,1.58
2022-10-02T13:18:17.132Z,2.67
2022-10-02T13:20:53.858Z,3.05
2022-10-02T13:23:25.449Z,1.92
2022-10-02T13:26:05.322Z,2.00
2022-10-02T13:29:14.775Z,2.88
2022-10-02T13:31:57.194Z,2.67
2022-10-02T13:34:45.923Z,4.22
2022-10-02T13:37:27.506Z,1.90
2022-10-02T13:40:17.848Z,3.83
2022-10-02T13:43:01.571Z,2.72
2022-10-02T13:45:36.025Z,3.60
2022-10-02T13:48:12.241Z,2.10
2022-10-02T13:50:50.625Z,2.20
2022-10-02T13:53:36.647Z,6.05
2022-10-02T13:56:15.776Z,49.03
2022-10-02T13:58:58.519Z,11.60
2022-10-02T14:01:33.514Z,57.33
2022-10-02T14:04:21.072Z,70.55
2022-10-02T14:06:55.587Z,23.15
2022-10-02T14:09:40.028Z,5.78
2022-10-02T14:12:23.264Z,2.85
2022-10-02T14:15:07.466Z,5.55
2022-10-02T14:17:44.905Z,4.60
2022-10-02T14:20:26.815Z,2.53
2022-10-02T14:23:09.255Z,7.07
2022-10-02T14:25:51.413Z,5.72
2022-10-02T14:28:46.950Z,8.57
2022-10-02T14:31:27.187Z,7.65
2022-10-02T14:34:22.323Z,4.78
2022-10-02T14:36:59.353Z,3.42
2022-10-02T14:39:35.661Z,1.65
2022-10-02T14:42:19.783Z,2.88
2022-10-02T14:45:01.045Z,3.38
2022-10-02T14:47:54.618Z,2.70
2022-10-02T14:50:37.429Z,2.90
2022-10-02T14:56:00.845Z,6.22
2022-10-02T14:58:42.700Z,3.88
2022-10-02T15:01:26.450Z,4.57
2022-10-02T15:04:18.258Z,3.85
2022-10-02T15:07:05.315Z,4.72
2022-10-02T15:09:54.150Z,5.13
2022-10-02T15:12:27.752Z,5.85
2022-10-02T15:15:06.773Z,8.43
2022-10-02T15:17:55.713Z,8.07
2022-10-02T15:20:40.580Z,7.03
2022-10-02T15:23:12.380Z,4.38
2022-10-02T15:25:57.053Z,4.27
2022-10-02T15:28:38.744Z,2.97
2022-10-02T15:31:19.380Z,2.92
2022-10-02T15:33:57.553Z,1.92
2022-10-02T15:36:44.866Z,2.67
2022-10-02T15:39:31.357Z,2.92
2022-10-02T15:42:05.467Z,2.38
2022-10-02T15:44:56.484Z,4.55
2022-10-02T15:47:38.241Z,4.82
2022-10-02T15:50:20.105Z,3.17
2022-10-02T15:53:00.658Z,2.92
2022-10-02T15:55:37.758Z,3.85
2022-10-02T15:58:16.889Z,5.70
2022-10-02T16:01:08.729Z,3.17
2022-10-02T16:03:47.110Z,2.83
2022-10-02T16:06:30.210Z,4.10
2022-10-02T16:09:16.015Z,3.53
2022-10-02T16:12:19.544Z,4.07
2022-10-02T16:14:59.104Z,23.95
2022-10-02T16:18:07.163Z,12.77
2022-10-02T16:20:58.331Z,9.20
2022-10-02T16:23:41.945Z,8.77
2022-10-02T16:26:20.886Z,4.55
2022-10-02T16:28:55.019Z,6.00
2022-10-02T16:31:50.480Z,3.30
2022-10-02T16:34:43.859Z,5.25
2022-10-02T16:37:24.321Z,4.38
2022-10-02T16:40:04.518Z,6.57
2022-10-02T16:42:56.881Z,9.50
2022-10-02T16:45:52.411Z,7.20
2022-10-02T16:48:31.702Z,5.65
2022-10-02T16:51:28.674Z,11.93
2022-10-02T16:54:04.601Z,6.07
2022-10-02T16:56:48.314Z,6.95
2022-10-02T16:59:25.101Z,9.82
2022-10-02T17:02:18.877Z,7.10
2022-10-02T17:05:06.293Z,6.65
2022-10-02T17:07:47.126Z,8.52
2022-10-02T17:10:59.020Z,9.75
2022-10-02T17:13:36.713Z,8.88
2022-10-02T17:16:25.254Z,12.65
2022-10-02T17:19:25.815Z,8.25
2022-10-02T17:21:56.507Z,7.90
2022-10-02T17:24:38.898Z,5.15
2022-10-02T17:27:17.229Z,3.80
2022-10-02T17:30:09.238Z,11.75
2022-10-02T17:32:50.824Z,22.63
2022-10-02T17:35:44.980Z,13.52
2022-10-02T17:38:46.081Z,8.90
2022-10-02T17:41:31.319Z,7.03
2022-10-02T17:44:11.685Z,4.45
2022-10-02T17:46:54.848Z,15.35
2022-10-02T17:49:32.220Z,8.50
2022-10-02T17:52:30.987Z,6.75
2022-10-02T17:55:26.776Z,8.50
2022-10-02T17:58:06.841Z,10.18
2022-10-02T18:00:41.643Z,13.23
2022-10-02T18:03:46.090Z,17.67
2022-10-02T18:06:22.127Z,12.23
2022-10-02T18:09:04.955Z,11.70
2022-10-02T18:14:27.025Z,11.38
2022-10-02T18:17:14.176Z,8.35
2022-10-02T18:19:57.282Z,9.65
2022-10-02T18:22:59.127Z,12.43
2022-10-02T18:25:49.159Z,14.18
2022-10-02T18:28:31.404Z,12.82
2022-10-02T18:31:28.784Z,8.57
2022-10-02T18:34:43.763Z,8.95
2022-10-02T18:37:23.243Z,13.18
2022-10-02T18:40:07.208Z,11.05
2022-10-02T18:42:50.179Z,15.00
2022-10-02T18:45:34.187Z,9.30
2022-10-02T18:48:28.612Z,17.48
2022-10-02T18:51:16.616Z,13.27
2022-10-02T18:53:58.426Z,15.38
2022-10-02T18:56:45.273Z,11.10
2022-10-02T18:59:23.174Z,8.32
2022-10-02T19:02:04.793Z,10.00
2022-10-02T19:05:03.854Z,5.25
2022-10-02T19:07:40.843Z,10.25
2022-10-02T19:10:26.188Z,7.95
2022-10-02T19:12:59.566Z,7.50
2022-10-02T19:15:30.497Z,9.63
2022-10-02T19:18:03.586Z,12.90
2022-10-02T19:20:46.601Z,10.27
2022-10-02T19:23:22.512Z,10.73
2022-10-02T19:25:52.535Z,10.07
2022-10-02T19:28:25.615Z,8.05
2022-10-02T19:30:58.515Z,7.72
2022-10-02T19:33:35.482Z,7.38
2022-10-02T19:36:07.145Z,7.68
2022-10-02T19:38:37.879Z,6.90
2022-10-02T19:41:10.537Z,9.52
2022-10-02T19:46:14.235Z,11.68
2022-10-02T19:48:42.177Z,11.38
2022-10-02T19:51:19.928Z,11.40
2022-10-02T19:53:52.865Z,13.60
2022-10-02T19:56:30.102Z,16.17
2022-10-02T19:59:03.780Z,14.15
2022-10-02T20:01:39.163Z,19.13
2022-10-02T20:04:07.916Z,18.00
2022-10-02T20:06:39.677Z,18.33
2022-10-02T20:09:16.485Z,23.63
2022-10-02T20:11:46.278Z,18.88
2022-10-02T20:14:19.773Z,16.10
2022-10-02T20:17:05.037Z,17.00
2022-10-02T20:19:36.942Z,21.58
2022-10-02T20:22:14.469Z,18.52
2022-10-02T20:24:51.290Z,16.42
2022-10-02T20:27:25.889Z,19.13
2022-10-02T20:30:00.863Z,18.00
2022-10-02T20:32:32.217Z,20.65
2022-10-02T20:35:04.749Z,23.30
2022-10-02T20:40:11.591Z,22.83
2022-10-02T20:42:47.461Z,21.80
2022-10-02T20:45:16.440Z,21.23
2022-10-02T20:48:13.789Z,20.65
2022-10-02T20:50:51.484Z,19.63
2022-10-02T20:54:01.268Z,20.58
2022-10-02T20:57:00.312Z,18.88
2022-10-02T21:00:01.687Z,17.67
2022-10-02T21:02:43.561Z,18.05
2022-10-02T21:05:31.624Z,19.95
2022-10-02T21:08:22.640Z,26.50
2022-10-02T21:11:17.353Z,16.17
2022-10-02T21:14:29.417Z,14.98
2022-10-02T21:17:38.869Z,13.35
2022-10-02T21:20:50.265Z,15.05
2022-10-02T21:23:47.513Z,15.53
2022-10-02T21:26:48.862Z,14.88
2022-10-02T21:29:42.795Z,13.57
2022-10-02T21:32:24.712Z,12.73
2022-10-02T21:35:05.891Z,16.47
2022-10-02T21:37:42.656Z,17.00
2022-10-02T21:40:52.194Z,20.90
2022-10-02T21:44:03.522Z,14.00
2022-10-02T21:47:13.612Z,13.50
2022-10-02T21:50:22.401Z,13.23
2022-10-02T21:53:25.364Z,18.15
2022-10-02T21:56:08.256Z,17.00
2022-10-02T22:02:04.136Z,18.20
2022-10-02T22:04:56.751Z,15.35
2022-10-02T22:07:34.523Z,13.18
2022-10-02T22:10:07.087Z,13.00
2022-10-02T22:15:13.410Z,13.68
2022-10-02T22:17:55.752Z,11.25
2022-10-02T22:20:43.022Z,12.55
2022-10-02T22:23:51.567Z,13.52
2022-10-02T22:26:34.810Z,10.45
2022-10-02T22:29:12.791Z,13.18
2022-10-02T22:32:16.138Z,8.65
2022-10-02T22:34:53.629Z,10.85
2022-10-02T22:37:56.825Z,13.13
2022-10-02T22:43:01.047Z,12.73
2022-10-02T22:45:35.236Z,13.07
2022-10-02T22:48:07.838Z,11.60
2022-10-02T22:53:12.072Z,9.57
2022-10-02T22:55:48.517Z,8.00
2022-10-02T22:58:24.133Z,9.40
2022-10-02T23:00:59.805Z,10.95
2022-10-02T23:03:37.795Z,10.98
2022-10-02T23:06:12.332Z,7.68
2022-10-02T23:08:47.687Z,11.00
2022-10-02T23:11:19.996Z,13.45
2022-10-02T23:13:51.849Z,11.60
2022-10-02T23:16:24.494Z,11.37
2022-10-02T23:18:58.996Z,8.60
2022-10-02T23:21:34.364Z,8.93
2022-10-02T23:24:08.258Z,9.48
2022-10-02T23:26:42.990Z,7.70
2022-10-02T23:29:22.811Z,7.57
2022-10-02T23:31:55.237Z,9.23
2022-10-02T23:34:33.915Z,7.35
2022-10-02T23:37:06.931Z,9.02
2022-10-02T23:39:42.320Z,9.38
2022-10-02T23:42:14.956Z,8.88
2022-10-02T23:47:32.903Z,8.90
2022-10-02T23:50:00.915Z,7.32
2022-10-02T23:52:53.439Z,19.83
2022-10-02T23:55:37.772Z,43.88
2022-10-02T23:58:22.286Z,72.45
